createdAt,value
2023-04-18T00:00:50.713Z,22.18
2023-04-18T00:01:52.862Z,22.12
2023-04-18T00:02:55.760Z,22.14
2023-04-18T00:03:58.109Z,21.93
2023-04-18T00:05:00.219Z,22.27
2023-04-18T00:06:02.360Z,21.96
2023-04-18T00:07:04.174Z,21.76
2023-04-18T00:08:05.921Z,21.63
2023-04-18T00:09:07.824Z,22.24
2023-04-18T00:10:09.994Z,22.14
2023-04-18T00:11:11.767Z,21.83
2023-04-18T00:12:13.753Z,22.25
2023-04-18T00:13:18.427Z,22.33
2023-04-18T00:14:20.809Z,21.86
2023-04-18T00:15:22.656Z,22.05
2023-04-18T00:16:24.522Z,22.02
2023-04-18T00:17:27.736Z,22.06
2023-04-18T00:18:29.620Z,21.92
2023-04-18T00:19:31.417Z,21.89
2023-04-18T00:20:33.229Z,21.96
2023-04-18T00:21:36.131Z,22.11
2023-04-18T00:22:42.647Z,21.94
2023-04-18T00:23:46.128Z,21.92
2023-04-18T00:24:49.828Z,22.09
2023-04-18T00:25:51.666Z,22.46
2023-04-18T00:26:53.470Z,21.84
2023-04-18T00:27:55.329Z,22.25
2023-04-18T00:28:58.964Z,21.84
2023-04-18T00:30:00.769Z,22.20
2023-04-18T00:31:03.087Z,21.58
2023-04-18T00:32:06.993Z,22.13
2023-04-18T00:33:09.002Z,21.91
2023-04-18T00:34:10.974Z,22.26
2023-04-18T00:35:12.856Z,21.75
2023-04-18T00:36:14.786Z,22.30
2023-04-18T00:37:16.704Z,22.06
2023-04-18T00:38:18.566Z,22.05
2023-04-18T00:39:22.943Z,22.27
2023-04-18T00:40:25.622Z,21.98
2023-04-18T00:41:28.424Z,21.78
2023-04-18T00:42:30.460Z,22.00
2023-04-18T00:43:35.091Z,22.32
2023-04-18T00:44:37.022Z,22.12
2023-04-18T00:45:38.891Z,21.92
2023-04-18T00:46:40.890Z,22.00
2023-04-18T00:47:43.163Z,22.17
2023-04-18T00:48:45.184Z,22.26
2023-04-18T00:49:48.658Z,22.08
2023-04-18T00:50:50.778Z,21.86
2023-04-18T00:51:54.744Z,22.06
2023-04-18T00:52:57.026Z,22.08
2023-04-18T00:53:58.852Z,21.86
2023-04-18T00:55:01.317Z,22.15
2023-04-18T00:56:03.632Z,21.90
2023-04-18T00:57:05.923Z,22.25
2023-04-18T00:58:08.249Z,21.82
2023-04-18T00:59:11.233Z,21.88
2023-04-18T01:00:15.170Z,21.92
2023-04-18T01:01:18.201Z,21.57
2023-04-18T01:02:20.318Z,21.81
2023-04-18T01:03:23.058Z,21.95
2023-04-18T01:04:25.070Z,21.99
2023-04-18T01:05:27.227Z,22.19
2023-04-18T01:06:29.570Z,22.24
2023-04-18T01:07:33.505Z,22.28
2023-04-18T01:08:36.437Z,22.23
2023-04-18T01:09:38.541Z,22.06
2023-04-18T01:10:40.670Z,22.28
2023-04-18T01:11:43.126Z,22.40
2023-04-18T01:12:45.044Z,21.99
2023-04-18T01:14:06.947Z,22.22
2023-04-18T01:15:11.592Z,21.83
2023-04-18T01:16:13.426Z,22.28
2023-04-18T01:17:16.304Z,21.94
2023-04-18T01:18:19.282Z,22.15
2023-04-18T01:19:21.536Z,22.04
2023-04-18T01:20:23.461Z,22.11
2023-04-18T01:21:26.913Z,22.25
2023-04-18T01:22:30.932Z,22.00
2023-04-18T01:23:32.855Z,22.28
2023-04-18T01:24:35.150Z,21.94
2023-04-18T01:25:37.401Z,22.39
2023-04-18T01:26:39.575Z,22.37
2023-04-18T01:27:41.477Z,22.36
2023-04-18T01:28:43.412Z,21.94
2023-04-18T01:29:45.653Z,21.84
2023-04-18T01:30:47.440Z,21.94
2023-04-18T01:31:49.247Z,22.38
2023-04-18T01:32:51.206Z,22.23
2023-04-18T01:33:53.046Z,22.28
2023-04-18T01:34:55.000Z,22.15
2023-04-18T01:35:56.966Z,22.39
2023-04-18T01:36:59.304Z,22.34
2023-04-18T01:38:01.357Z,22.12
2023-04-18T01:39:03.693Z,22.32
2023-04-18T01:40:06.138Z,22.01
2023-04-18T01:41:07.942Z,21.86
2023-04-18T01:42:09.905Z,22.16
2023-04-18T01:43:12.543Z,22.26
2023-04-18T01:44:14.810Z,22.01
2023-04-18T01:45:17.348Z,22.37
2023-04-18T01:46:20.442Z,22.10
2023-04-18T01:47:22.232Z,22.27
2023-04-18T01:48:24.082Z,22.35
2023-04-18T01:49:25.933Z,21.97
2023-04-18T01:50:27.727Z,21.88
2023-04-18T01:51:29.572Z,22.42
2023-04-18T01:52:31.554Z,22.06
2023-04-18T01:53:33.508Z,22.06
2023-04-18T01:54:35.573Z,21.91
2023-04-18T01:55:37.418Z,22.39
2023-04-18T01:56:39.321Z,22.04
2023-04-18T01:57:41.292Z,22.39
2023-04-18T01:58:44.245Z,22.10
2023-04-18T01:59:47.700Z,22.23
2023-04-18T02:00:52.598Z,22.02
2023-04-18T02:01:55.086Z,22.28
2023-04-18T02:02:59.793Z,22.26
2023-04-18T02:04:01.798Z,21.89
2023-04-18T02:05:03.766Z,22.40
2023-04-18T02:06:06.232Z,22.04
2023-04-18T02:07:08.168Z,22.40
2023-04-18T02:08:11.760Z,21.94
2023-04-18T02:09:13.630Z,22.54
2023-04-18T02:10:18.215Z,22.00
2023-04-18T02:11:20.126Z,22.43
2023-04-18T02:12:22.140Z,22.36
2023-04-18T02:13:25.140Z,22.45
2023-04-18T02:14:28.229Z,22.35
2023-04-18T02:15:30.334Z,22.10
2023-04-18T02:16:32.238Z,22.19
2023-04-18T02:17:35.664Z,22.05
2023-04-18T02:18:40.207Z,22.16
2023-04-18T02:19:42.044Z,21.89
2023-04-18T02:20:44.158Z,22.09
2023-04-18T02:21:46.032Z,22.17
2023-04-18T02:22:49.565Z,21.95
2023-04-18T02:23:51.684Z,22.07
2023-04-18T02:24:56.674Z,22.18
2023-04-18T02:25:58.437Z,22.12
2023-04-18T02:27:00.929Z,22.35
2023-04-18T02:28:02.792Z,22.39
2023-04-18T02:29:06.305Z,22.40
2023-04-18T02:30:08.670Z,22.57
2023-04-18T02:31:15.198Z,22.37
2023-04-18T02:32:17.099Z,22.01
2023-04-18T02:33:19.636Z,22.26
2023-04-18T02:34:21.459Z,21.91
2023-04-18T02:35:24.183Z,22.24
2023-04-18T02:36:28.166Z,22.33
2023-04-18T02:37:30.071Z,22.24
2023-04-18T02:38:31.974Z,22.47
2023-04-18T02:39:33.775Z,22.03
2023-04-18T02:40:35.623Z,22.47
2023-04-18T02:41:39.327Z,22.30
2023-04-18T02:42:41.279Z,21.94
2023-04-18T02:43:43.316Z,22.39
2023-04-18T02:44:45.404Z,22.35
2023-04-18T02:45:47.312Z,21.86
2023-04-18T02:46:49.681Z,22.15
2023-04-18T02:47:55.982Z,22.40
2023-04-18T02:48:58.531Z,22.39
2023-04-18T02:50:00.471Z,22.45
2023-04-18T02:51:04.714Z,22.39
2023-04-18T02:52:09.078Z,22.45
2023-04-18T02:53:11.086Z,22.50
2023-04-18T02:54:28.565Z,22.26
2023-04-18T02:55:37.326Z,22.11
2023-04-18T02:56:40.229Z,22.12
2023-04-18T02:57:51.169Z,22.04
2023-04-18T02:59:11.573Z,22.36
2023-04-18T03:00:33.356Z,22.13
2023-04-18T03:01:40.961Z,22.37
2023-04-18T03:02:48.180Z,21.94
2023-04-18T03:04:01.378Z,22.01
2023-04-18T03:05:15.367Z,22.50
2023-04-18T03:06:17.445Z,22.34
2023-04-18T03:07:19.245Z,22.35
2023-04-18T03:08:22.339Z,22.34
2023-04-18T03:09:25.303Z,22.05
2023-04-18T03:10:31.686Z,22.18
2023-04-18T03:11:33.606Z,22.39
2023-04-18T03:12:35.691Z,22.20
2023-04-18T03:13:38.788Z,22.12
2023-04-18T03:14:40.798Z,22.44
2023-04-18T03:15:42.888Z,22.06
2023-04-18T03:16:45.616Z,22.17
2023-04-18T03:17:51.575Z,22.09
2023-04-18T03:18:56.356Z,22.43
2023-04-18T03:19:58.498Z,22.06
2023-04-18T03:21:00.811Z,22.50
2023-04-18T03:22:04.280Z,22.08
2023-04-18T03:23:06.655Z,22.17
2023-04-18T03:24:12.248Z,21.96
2023-04-18T03:25:16.184Z,22.37
2023-04-18T03:26:24.642Z,22.33
2023-04-18T03:27:27.403Z,21.99
2023-04-18T03:28:29.392Z,22.23
2023-04-18T03:29:31.405Z,22.26
2023-04-18T03:30:33.640Z,22.42
2023-04-18T03:31:36.477Z,22.44
2023-04-18T03:32:38.650Z,22.28
2023-04-18T03:33:42.428Z,22.20
2023-04-18T03:34:45.568Z,22.17
2023-04-18T03:35:47.405Z,22.29
2023-04-18T03:36:49.539Z,22.03
2023-04-18T03:37:52.097Z,22.58
2023-04-18T03:38:59.217Z,22.12
2023-04-18T03:40:01.830Z,22.40
2023-04-18T03:41:05.422Z,22.22
2023-04-18T03:42:11.758Z,22.27
2023-04-18T03:43:17.019Z,22.43
2023-04-18T03:44:18.940Z,22.64
2023-04-18T03:45:20.944Z,22.46
2023-04-18T03:46:24.604Z,22.28
2023-04-18T03:47:31.547Z,22.23
2023-04-18T03:48:37.302Z,25.29
2023-04-18T03:52:49.049Z,26.43
2023-04-18T03:53:52.571Z,27.41
2023-04-18T03:54:54.452Z,27.36
2023-04-18T03:56:00.191Z,27.24
2023-04-18T03:57:16.330Z,27.31
2023-04-18T03:58:23.609Z,27.60
2023-04-18T03:59:26.711Z,27.40
2023-04-18T04:02:04.006Z,26.97
2023-04-18T04:03:07.019Z,26.85
2023-04-18T04:04:14.125Z,27.00
2023-04-18T04:05:34.800Z,26.80
2023-04-18T04:06:36.730Z,26.61
2023-04-18T04:07:38.869Z,26.43
2023-04-18T04:08:42.297Z,26.41
2023-04-18T04:09:44.423Z,26.38
2023-04-18T04:10:46.783Z,25.98
2023-04-18T04:11:48.643Z,26.28
2023-04-18T04:12:51.506Z,26.10
2023-04-18T04:13:53.732Z,26.25
2023-04-18T04:15:01.040Z,26.32
2023-04-18T04:16:03.180Z,26.30
2023-04-18T04:17:05.613Z,25.91
2023-04-18T04:18:09.008Z,26.08
2023-04-18T04:19:14.993Z,26.01
2023-04-18T04:20:29.827Z,25.71
2023-04-18T04:21:39.204Z,25.82
2023-04-18T04:22:44.258Z,25.67
2023-04-18T04:23:46.412Z,25.45
2023-04-18T04:25:00.811Z,25.27
2023-04-18T04:26:09.199Z,25.33
2023-04-18T04:27:19.161Z,25.37
2023-04-18T04:28:26.347Z,25.20
2023-04-18T04:29:33.677Z,25.16
2023-04-18T04:30:35.820Z,25.01
2023-04-18T04:31:37.797Z,24.64
2023-04-18T04:32:39.659Z,24.63
2023-04-18T04:33:42.691Z,24.63
2023-04-18T04:34:50.915Z,25.15
2023-04-18T04:35:54.297Z,24.55
2023-04-18T04:36:56.357Z,24.63
2023-04-18T04:38:01.668Z,24.68
2023-04-18T04:39:11.822Z,24.91
2023-04-18T04:40:34.948Z,24.43
2023-04-18T04:41:44.146Z,24.62
2023-04-18T04:42:49.154Z,24.88
2023-04-18T04:43:56.998Z,24.28
2023-04-18T04:45:03.743Z,24.75
2023-04-18T04:46:07.561Z,24.33
2023-04-18T04:47:09.691Z,24.32
2023-04-18T04:48:14.077Z,24.06
2023-04-18T04:49:16.824Z,24.04
2023-04-18T04:50:19.027Z,24.91
2023-04-18T04:51:20.936Z,24.23
2023-04-18T04:52:22.775Z,24.36
2023-04-18T04:53:26.380Z,24.52
2023-04-18T04:54:28.352Z,24.22
2023-04-18T04:55:30.376Z,24.10
2023-04-18T04:56:32.791Z,23.89
2023-04-18T04:57:35.831Z,24.33
2023-04-18T04:58:45.304Z,24.13
2023-04-18T04:59:51.194Z,24.00
2023-04-18T05:00:53.677Z,24.39
2023-04-18T05:01:55.980Z,23.92
2023-04-18T05:02:57.993Z,24.45
2023-04-18T05:04:01.725Z,24.39
2023-04-18T05:05:03.902Z,24.33
2023-04-18T05:06:06.071Z,24.05
2023-04-18T05:07:07.875Z,24.02
2023-04-18T05:08:09.789Z,24.25
2023-04-18T05:09:11.638Z,24.56
2023-04-18T05:10:13.512Z,24.13
2023-04-18T05:11:16.075Z,24.10
2023-04-18T05:12:17.905Z,24.29
2023-04-18T05:13:19.734Z,23.91
2023-04-18T05:14:21.603Z,23.42
2023-04-18T05:15:24.237Z,23.61
2023-04-18T05:16:26.646Z,23.25
2023-04-18T05:17:28.526Z,23.34
2023-04-18T05:18:30.573Z,23.39
2023-04-18T05:19:33.106Z,23.17
2023-04-18T05:20:34.884Z,23.39
2023-04-18T05:21:36.762Z,23.36
2023-04-18T05:22:38.653Z,23.38
2023-04-18T05:23:40.547Z,23.11
2023-04-18T05:24:42.366Z,22.88
2023-04-18T05:25:44.203Z,23.00
2023-04-18T05:26:46.081Z,22.59
2023-04-18T05:27:48.022Z,22.47
2023-04-18T05:28:49.874Z,22.85
2023-04-18T05:29:51.712Z,22.37
2023-04-18T05:31:01.055Z,22.61
2023-04-18T05:32:03.398Z,22.41
2023-04-18T05:33:05.443Z,22.68
2023-04-18T05:34:07.278Z,22.75
2023-04-18T05:35:09.453Z,22.22
2023-04-18T05:36:11.332Z,22.11
2023-04-18T05:37:13.189Z,22.54
2023-04-18T05:38:15.105Z,22.11
2023-04-18T05:39:17.152Z,21.98
2023-04-18T05:40:18.948Z,22.10
2023-04-18T05:41:20.849Z,21.81
2023-04-18T05:42:23.767Z,21.46
2023-04-18T05:43:25.835Z,22.08
2023-04-18T05:44:27.717Z,21.88
2023-04-18T05:45:29.611Z,21.95
2023-04-18T05:46:31.497Z,21.64
2023-04-18T05:47:33.756Z,21.37
2023-04-18T05:48:35.790Z,21.76
2023-04-18T05:49:37.591Z,21.24
2023-04-18T05:50:39.493Z,21.16
2023-04-18T05:51:41.338Z,21.88
2023-04-18T05:52:43.227Z,21.83
2023-04-18T05:53:45.000Z,21.44
2023-04-18T05:54:46.862Z,21.01
2023-04-18T05:55:48.961Z,21.59
2023-04-18T05:56:51.202Z,21.21
2023-04-18T05:57:53.069Z,21.32
2023-04-18T05:58:54.871Z,21.34
2023-04-18T05:59:56.673Z,20.98
2023-04-18T06:00:58.496Z,21.25
2023-04-18T06:02:00.468Z,21.21
2023-04-18T06:03:02.642Z,20.92
2023-04-18T06:04:05.138Z,20.79
2023-04-18T06:05:08.098Z,21.08
2023-04-18T06:06:10.861Z,21.35
2023-04-18T06:07:12.794Z,21.60
2023-04-18T06:08:14.593Z,21.42
2023-04-18T06:09:16.370Z,20.97
2023-04-18T06:10:18.211Z,21.06
2023-04-18T06:11:22.749Z,20.82
2023-04-18T06:13:26.348Z,21.32
2023-04-18T06:14:28.751Z,20.95
2023-04-18T06:15:30.633Z,21.02
2023-04-18T06:16:32.687Z,20.64
2023-04-18T06:17:35.047Z,21.02
2023-04-18T06:18:37.036Z,21.34
2023-04-18T06:19:39.735Z,20.80
2023-04-18T06:20:43.953Z,21.05
2023-04-18T06:21:46.161Z,20.92
2023-04-18T06:22:48.004Z,20.89
2023-04-18T06:23:49.957Z,21.28
2023-04-18T06:24:51.887Z,21.02
2023-04-18T06:25:53.873Z,21.07
2023-04-18T06:26:58.502Z,20.82
2023-04-18T06:28:00.447Z,21.35
2023-04-18T06:29:02.349Z,20.95
2023-04-18T06:30:05.492Z,20.69
2023-04-18T06:31:08.674Z,21.17
2023-04-18T06:32:10.532Z,21.15
2023-04-18T06:33:12.336Z,20.83
2023-04-18T06:34:14.431Z,20.73
2023-04-18T06:35:16.818Z,20.69
2023-04-18T06:36:19.146Z,21.24
2023-04-18T06:37:21.232Z,20.30
2023-04-18T06:38:23.126Z,20.95
2023-04-18T06:39:25.128Z,21.11
2023-04-18T06:40:27.134Z,20.32
2023-04-18T06:41:28.947Z,20.79
2023-04-18T06:42:30.819Z,20.59
2023-04-18T06:43:32.939Z,20.44
2023-04-18T06:44:36.401Z,20.92
2023-04-18T06:45:38.610Z,20.93
2023-04-18T06:46:40.545Z,20.99
2023-04-18T06:47:42.372Z,20.68
2023-04-18T06:48:44.184Z,20.69
2023-04-18T06:49:46.090Z,20.42
2023-04-18T06:50:47.956Z,20.57
2023-04-18T06:51:49.715Z,20.98
2023-04-18T06:52:51.483Z,20.53
2023-04-18T06:53:53.867Z,20.75
2023-04-18T06:54:55.706Z,20.62
2023-04-18T06:55:57.584Z,20.67
2023-04-18T06:56:59.784Z,20.73
2023-04-18T06:58:01.602Z,20.88
2023-04-18T06:59:03.540Z,20.78
2023-04-18T07:00:06.028Z,20.89
2023-04-18T07:01:07.855Z,20.68
2023-04-18T07:02:09.713Z,20.81
2023-04-18T07:03:13.640Z,20.25
2023-04-18T07:04:15.738Z,21.04
2023-04-18T07:05:18.008Z,20.47
2023-04-18T07:06:20.001Z,20.35
2023-04-18T07:07:21.931Z,20.46
2023-04-18T07:08:23.722Z,20.76
2023-04-18T07:09:25.536Z,20.33
2023-04-18T07:10:27.394Z,21.13
2023-04-18T07:11:29.995Z,20.49
2023-04-18T07:12:31.846Z,20.80
2023-04-18T07:13:33.697Z,20.88
2023-04-18T07:14:35.640Z,20.58
2023-04-18T07:15:37.800Z,20.84
2023-04-18T07:16:39.821Z,20.63
2023-04-18T07:17:41.768Z,21.03
2023-04-18T07:18:43.598Z,20.44
2023-04-18T07:19:45.706Z,20.75
2023-04-18T07:20:47.486Z,20.63
2023-04-18T07:21:49.296Z,21.08
2023-04-18T07:22:51.181Z,20.52
2023-04-18T07:23:52.971Z,20.56
2023-04-18T07:24:54.847Z,20.79
2023-04-18T07:25:58.706Z,20.66
2023-04-18T07:27:01.566Z,20.70
2023-04-18T07:28:03.482Z,20.84
2023-04-18T07:29:05.460Z,20.75
2023-04-18T07:30:07.858Z,21.03
2023-04-18T07:31:11.605Z,20.67
2023-04-18T07:32:13.585Z,20.68
2023-04-18T07:33:15.431Z,20.52
2023-04-18T07:34:17.931Z,21.17
2023-04-18T07:35:19.905Z,20.73
2023-04-18T07:36:21.821Z,21.04
2023-04-18T07:37:23.963Z,21.24
2023-04-18T07:38:27.049Z,21.09
2023-04-18T07:39:28.956Z,20.76
2023-04-18T07:40:30.870Z,20.63
2023-04-18T07:41:33.340Z,21.07
2023-04-18T07:42:35.148Z,20.64
2023-04-18T07:43:38.651Z,20.92
2023-04-18T07:44:40.523Z,20.96
2023-04-18T07:45:43.433Z,20.72
2023-04-18T07:46:45.402Z,20.79
2023-04-18T07:47:47.981Z,20.81
2023-04-18T07:48:50.503Z,20.92
2023-04-18T07:49:52.330Z,20.52
2023-04-18T07:50:54.339Z,20.53
2023-04-18T07:51:56.174Z,20.73
2023-04-18T07:52:58.046Z,20.40
2023-04-18T07:53:59.920Z,20.77
2023-04-18T07:55:01.737Z,21.15
2023-04-18T07:56:03.686Z,20.99
2023-04-18T07:57:05.542Z,20.39
2023-04-18T07:58:07.385Z,20.72
2023-04-18T07:59:09.166Z,21.09
2023-04-18T08:00:12.529Z,20.63
2023-04-18T08:01:18.680Z,20.56
2023-04-18T08:02:21.388Z,20.58
2023-04-18T08:03:23.616Z,20.27
2023-04-18T08:04:28.232Z,20.62
2023-04-18T08:05:31.786Z,20.57
2023-04-18T08:06:34.834Z,21.07
2023-04-18T08:07:37.133Z,20.55
2023-04-18T08:08:39.041Z,21.12
2023-04-18T08:09:40.872Z,20.60
2023-04-18T08:10:42.740Z,20.34
2023-04-18T08:11:44.570Z,20.83
2023-04-18T08:12:46.444Z,21.09
2023-04-18T08:13:48.251Z,20.90
2023-04-18T08:14:50.448Z,21.00
2023-04-18T08:15:52.379Z,20.80
2023-04-18T08:16:54.241Z,20.46
2023-04-18T08:17:56.260Z,20.62
2023-04-18T08:18:58.081Z,20.87
2023-04-18T08:20:00.915Z,20.79
2023-04-18T08:21:02.780Z,20.74
2023-04-18T08:22:12.270Z,20.66
2023-04-18T08:23:14.884Z,20.85
2023-04-18T08:24:16.712Z,21.11
2023-04-18T08:25:18.566Z,20.87
2023-04-18T08:26:20.946Z,20.83
2023-04-18T08:27:22.768Z,20.98
2023-04-18T08:28:24.630Z,20.73
2023-04-18T08:29:27.264Z,20.74
2023-04-18T08:30:29.231Z,20.83
2023-04-18T08:31:31.836Z,20.68
2023-04-18T08:32:33.938Z,20.59
2023-04-18T08:33:35.781Z,20.75
2023-04-18T08:34:38.167Z,20.66
2023-04-18T08:35:40.016Z,20.38
2023-04-18T08:36:41.810Z,20.53
2023-04-18T08:37:43.929Z,20.76
2023-04-18T08:38:45.727Z,20.63
2023-04-18T08:39:47.488Z,20.45
2023-04-18T08:40:49.446Z,21.14
2023-04-18T08:42:00.144Z,20.84
2023-04-18T08:43:05.011Z,20.56
2023-04-18T08:44:07.418Z,20.41
2023-04-18T08:45:09.630Z,20.86
2023-04-18T08:46:11.807Z,20.52
2023-04-18T08:47:14.763Z,20.77
2023-04-18T08:48:17.698Z,20.69
2023-04-18T08:49:22.673Z,20.43
2023-04-18T08:50:24.558Z,20.42
2023-04-18T08:51:30.619Z,20.40
2023-04-18T08:52:34.332Z,20.63
2023-04-18T08:53:36.223Z,20.68
2023-04-18T08:54:42.058Z,20.88
2023-04-18T08:55:44.566Z,20.88
2023-04-18T08:56:46.730Z,20.40
2023-04-18T08:57:50.418Z,20.67
2023-04-18T08:58:52.316Z,20.90
2023-04-18T08:59:55.395Z,21.10
2023-04-18T09:00:57.360Z,20.52
2023-04-18T09:02:01.629Z,20.51
2023-04-18T09:03:04.298Z,20.91
2023-04-18T09:04:06.425Z,20.95
2023-04-18T09:05:19.727Z,20.91
2023-04-18T09:06:22.102Z,20.55
2023-04-18T09:07:30.676Z,20.89
2023-04-18T09:08:32.512Z,20.55
2023-04-18T09:09:50.705Z,20.53
2023-04-18T09:10:52.801Z,20.33
2023-04-18T09:12:08.306Z,20.70
2023-04-18T09:13:10.254Z,20.29
2023-04-18T09:14:26.014Z,20.47
2023-04-18T09:15:29.367Z,20.64
2023-04-18T09:16:46.885Z,20.73
2023-04-18T09:17:53.097Z,21.00
2023-04-18T09:19:14.511Z,20.98
2023-04-18T09:20:47.632Z,20.77
2023-04-18T09:22:01.965Z,20.12
2023-04-18T09:23:06.048Z,20.49
2023-04-18T09:24:21.166Z,20.81
2023-04-18T09:25:39.845Z,20.58
2023-04-18T09:26:43.956Z,20.64
2023-04-18T09:27:46.136Z,20.33
2023-04-18T09:28:53.964Z,20.33
2023-04-18T09:29:57.793Z,20.99
2023-04-18T09:31:15.531Z,20.73
2023-04-18T09:32:27.114Z,21.04
2023-04-18T09:33:34.001Z,20.94
2023-04-18T09:34:42.525Z,20.89
2023-04-18T09:35:44.505Z,20.22
2023-04-18T09:36:46.337Z,20.44
2023-04-18T09:37:51.247Z,20.82
2023-04-18T09:38:56.208Z,21.01
2023-04-18T09:39:58.740Z,20.99
2023-04-18T09:41:15.812Z,20.40
2023-04-18T09:42:18.491Z,20.55
2023-04-18T09:43:21.409Z,20.60
2023-04-18T09:44:23.177Z,20.21
2023-04-18T09:45:25.680Z,20.33
2023-04-18T09:46:27.860Z,20.57
2023-04-18T09:47:30.269Z,20.91
2023-04-18T09:48:32.124Z,20.56
2023-04-18T09:49:34.012Z,21.01
2023-04-18T09:50:36.768Z,20.72
2023-04-18T09:51:39.729Z,20.58
2023-04-18T09:52:42.950Z,20.36
2023-04-18T09:53:47.504Z,20.44
2023-04-18T09:54:58.665Z,20.45
2023-04-18T09:56:01.670Z,20.61
2023-04-18T09:57:08.280Z,20.76
2023-04-18T09:58:11.527Z,20.55
2023-04-18T09:59:21.632Z,20.80
2023-04-18T10:00:26.652Z,20.57
2023-04-18T10:01:29.873Z,20.20
2023-04-18T10:02:41.232Z,20.55
2023-04-18T10:03:47.393Z,20.99
2023-04-18T10:04:54.310Z,20.97
2023-04-18T10:05:57.752Z,20.83
2023-04-18T10:07:00.877Z,20.56
2023-04-18T10:08:03.743Z,20.47
2023-04-18T10:09:06.452Z,20.67
2023-04-18T10:10:08.758Z,20.58
2023-04-18T10:11:11.104Z,21.02
2023-04-18T10:12:13.582Z,20.69
2023-04-18T10:13:18.685Z,20.79
2023-04-18T10:14:22.777Z,20.66
2023-04-18T10:15:29.635Z,21.06
2023-04-18T10:16:34.835Z,21.01
2023-04-18T10:18:00.240Z,21.14
2023-04-18T10:19:26.248Z,20.69
2023-04-18T10:20:30.151Z,20.13
2023-04-18T10:21:32.170Z,20.55
2023-04-18T10:22:35.455Z,20.97
2023-04-18T10:23:39.895Z,20.94
2023-04-18T10:24:56.219Z,20.57
2023-04-18T10:25:59.578Z,20.78
2023-04-18T10:27:02.184Z,20.88
2023-04-18T10:28:08.052Z,20.36
2023-04-18T10:29:10.052Z,20.46
2023-04-18T10:30:12.384Z,20.58
2023-04-18T10:31:16.464Z,20.30
2023-04-18T10:32:20.047Z,20.94
2023-04-18T10:33:33.601Z,21.10
2023-04-18T10:34:37.828Z,20.55
2023-04-18T10:36:00.263Z,21.08
2023-04-18T10:37:05.872Z,20.77
2023-04-18T10:38:16.794Z,20.55
2023-04-18T10:39:23.340Z,20.56
2023-04-18T10:40:35.090Z,20.82
2023-04-18T10:41:49.530Z,20.83
2023-04-18T10:42:52.472Z,20.92
2023-04-18T10:44:15.845Z,20.60
2023-04-18T10:45:22.615Z,20.92
2023-04-18T10:46:31.646Z,20.81
2023-04-18T10:47:34.944Z,20.73
2023-04-18T10:48:39.332Z,20.90
2023-04-18T10:49:53.917Z,20.81
2023-04-18T10:51:15.152Z,20.60
2023-04-18T10:52:17.021Z,20.46
2023-04-18T10:53:18.944Z,21.07
2023-04-18T10:54:46.783Z,21.07
2023-04-18T10:55:54.565Z,20.38
2023-04-18T10:56:59.204Z,20.83
2023-04-18T10:58:01.586Z,20.93
2023-04-18T10:59:03.761Z,20.79
2023-04-18T11:00:09.442Z,21.12
2023-04-18T11:01:14.518Z,21.22
2023-04-18T11:02:27.233Z,20.59
2023-04-18T11:03:35.687Z,20.97
2023-04-18T11:04:38.008Z,20.85
2023-04-18T11:05:39.964Z,20.58
2023-04-18T11:06:55.011Z,21.03
2023-04-18T11:07:56.859Z,20.63
2023-04-18T11:09:12.210Z,21.05
2023-04-18T11:10:18.444Z,20.86
2023-04-18T11:11:20.972Z,20.32
2023-04-18T11:12:23.276Z,21.05
2023-04-18T11:13:26.784Z,20.91
2023-04-18T11:14:39.869Z,20.56
2023-04-18T11:15:41.740Z,20.55
2023-04-18T11:16:43.581Z,20.70
2023-04-18T11:17:45.809Z,20.71
2023-04-18T11:18:47.590Z,20.57
2023-04-18T11:19:50.386Z,20.71
2023-04-18T11:20:52.267Z,20.84
2023-04-18T11:22:01.350Z,21.11
2023-04-18T11:23:03.703Z,20.80
2023-04-18T11:24:05.640Z,20.48
2023-04-18T11:25:08.617Z,20.69
2023-04-18T11:26:13.013Z,20.57
2023-04-18T11:27:14.877Z,21.11
2023-04-18T11:28:21.439Z,21.12
2023-04-18T11:29:23.363Z,20.85
2023-04-18T11:30:25.419Z,20.74
2023-04-18T11:31:27.310Z,21.02
2023-04-18T11:32:29.359Z,20.84
2023-04-18T11:33:32.025Z,21.05
2023-04-18T11:34:34.027Z,20.66
2023-04-18T11:35:40.777Z,20.94
2023-04-18T11:36:42.776Z,20.64
2023-04-18T11:37:50.015Z,20.82
2023-04-18T11:38:51.987Z,20.96
2023-04-18T11:39:54.201Z,20.75
2023-04-18T11:40:56.315Z,21.07
2023-04-18T11:41:59.366Z,20.70
2023-04-18T11:43:02.522Z,21.22
2023-04-18T11:44:06.550Z,20.85
2023-04-18T11:45:12.795Z,20.51
2023-04-18T11:46:14.829Z,20.76
2023-04-18T11:47:31.622Z,21.03
2023-04-18T11:48:38.429Z,20.41
2023-04-18T11:49:40.250Z,20.59
2023-04-18T11:50:42.028Z,20.58
2023-04-18T11:51:46.385Z,21.05
2023-04-18T11:52:51.193Z,20.95
2023-04-18T11:53:53.056Z,20.66
2023-04-18T11:54:56.158Z,20.84
2023-04-18T11:55:58.075Z,20.64
2023-04-18T11:57:00.037Z,20.80
2023-04-18T11:58:02.830Z,20.91
2023-04-18T11:59:10.735Z,21.00
2023-04-18T12:00:13.508Z,21.03
2023-04-18T12:01:25.765Z,20.80
2023-04-18T12:02:50.072Z,20.82
2023-04-18T12:04:02.569Z,20.45
2023-04-18T12:05:06.048Z,21.20
2023-04-18T12:06:08.187Z,21.06
2023-04-18T12:07:10.040Z,20.73
2023-04-18T12:08:13.691Z,21.06
2023-04-18T12:09:17.186Z,20.90
2023-04-18T12:10:27.400Z,21.08
2023-04-18T12:11:29.424Z,20.86
2023-04-18T12:12:31.359Z,20.92
2023-04-18T12:13:35.126Z,20.75
2023-04-18T12:14:36.881Z,20.65
2023-04-18T12:15:40.612Z,21.04
2023-04-18T12:16:42.552Z,21.00
2023-04-18T12:17:48.621Z,20.44
2023-04-18T12:18:57.376Z,21.01
2023-04-18T12:20:04.714Z,20.97
2023-04-18T12:21:06.521Z,20.40
2023-04-18T12:22:09.731Z,21.00
2023-04-18T12:23:46.468Z,20.89
2023-04-18T12:25:10.332Z,20.56
2023-04-18T12:26:14.563Z,20.77
2023-04-18T12:27:17.085Z,20.22
2023-04-18T12:28:20.029Z,20.45
2023-04-18T12:29:21.882Z,20.83
2023-04-18T12:30:30.444Z,21.10
2023-04-18T12:31:33.449Z,20.64
2023-04-18T12:32:35.974Z,21.05
2023-04-18T12:33:37.788Z,20.71
2023-04-18T12:34:39.633Z,20.92
2023-04-18T12:35:42.605Z,20.58
2023-04-18T12:36:44.638Z,21.04
2023-04-18T12:37:48.276Z,20.62
2023-04-18T12:38:50.170Z,20.70
2023-04-18T12:39:51.979Z,20.73
2023-04-18T12:40:53.887Z,20.59
2023-04-18T12:41:55.889Z,20.67
2023-04-18T12:42:57.762Z,20.76
2023-04-18T12:44:00.394Z,20.59
2023-04-18T12:45:07.593Z,21.11
2023-04-18T12:46:09.557Z,20.98
2023-04-18T12:47:11.611Z,20.66
2023-04-18T12:48:13.978Z,20.56
2023-04-18T12:49:15.907Z,20.97
2023-04-18T12:50:23.909Z,21.04
2023-04-18T12:51:26.643Z,20.84
2023-04-18T12:52:28.882Z,20.95
2023-04-18T12:53:30.817Z,20.49
2023-04-18T12:54:32.742Z,20.95
2023-04-18T12:55:34.602Z,21.07
2023-04-18T12:56:36.448Z,21.27
2023-04-18T12:57:38.510Z,20.71
2023-04-18T12:58:40.952Z,20.84
2023-04-18T12:59:42.778Z,20.97
2023-04-18T13:00:44.632Z,20.37
2023-04-18T13:01:46.517Z,20.72
2023-04-18T13:02:48.478Z,20.41
2023-04-18T13:03:56.732Z,20.85
2023-04-18T13:05:11.024Z,20.87
2023-04-18T13:06:13.130Z,21.00
2023-04-18T13:07:14.949Z,21.02
2023-04-18T13:08:18.160Z,20.62
2023-04-18T13:09:20.230Z,20.74
2023-04-18T13:10:24.773Z,20.73
2023-04-18T13:11:28.742Z,21.17
2023-04-18T13:12:31.100Z,20.62
2023-04-18T13:13:34.454Z,20.97
2023-04-18T13:14:37.492Z,21.13
2023-04-18T13:15:39.345Z,21.12
2023-04-18T13:16:43.561Z,20.63
2023-04-18T13:17:45.928Z,20.49
2023-04-18T13:18:47.740Z,20.87
2023-04-18T13:19:49.820Z,20.99
2023-04-18T13:20:52.555Z,20.89
2023-04-18T13:21:54.351Z,20.92
2023-04-18T13:22:56.467Z,21.21
2023-04-18T13:23:58.298Z,21.18
2023-04-18T13:25:00.527Z,20.58
2023-04-18T13:26:02.405Z,20.60
2023-04-18T13:27:10.578Z,20.95
2023-04-18T13:28:12.349Z,20.78
2023-04-18T13:29:14.361Z,20.59
2023-04-18T13:30:16.266Z,20.68
2023-04-18T13:31:18.093Z,20.55
2023-04-18T13:32:20.246Z,20.92
2023-04-18T13:33:22.102Z,21.17
2023-04-18T13:34:23.884Z,20.87
2023-04-18T13:35:25.685Z,20.47
2023-04-18T13:36:27.812Z,20.97
2023-04-18T13:37:31.252Z,20.67
2023-04-18T13:38:33.048Z,20.46
2023-04-18T13:39:34.937Z,20.89
2023-04-18T13:40:38.815Z,21.07
2023-04-18T13:41:40.647Z,21.14
2023-04-18T13:42:43.159Z,20.49
2023-04-18T13:43:44.943Z,20.45
2023-04-18T13:44:47.731Z,21.23
2023-04-18T13:45:49.610Z,20.96
2023-04-18T13:46:54.555Z,20.66
2023-04-18T13:47:56.353Z,20.56
2023-04-18T13:48:58.372Z,20.41